Coral Topaz — 3ELB7 — position and weather

sailwx.info

Track history (hours):
 
Tides and Currents Weather Stations Pressure Air Temp Water Temp Dewpoint Dewpoint Depression Visibility Wind Speed Wind Dir Waves Ship Positions

Coral Topaz

Last reported at 2017-Sep-25 10:50 UTC. Time now 2017-Oct-20 04:51 UTC.
Position S 21°43' E 154°05'.
Warning: this ship's position is 24 days out of date.

Length 225 m; draft 12.9 m.

Type: Ship. MMSI: 372904000.

Date/timePositionNaut miles runAvg speedWind from/ knotsBaromVisibWave heightAir tempDewpointWater temp
2017-Sep-25 10:50S 21°43' E 154°05'310.1
2017-Sep-25 10:30S 21°46' E 154°05'222 9.9
2017-Sep-24 11:59S 25°28' E 153°57'11 7.8
2017-Sep-24 10:37S 25°39' E 153°56'2 7.6
2017-Sep-24 10:18S 25°41' E 153°56'3 7.5
2017-Sep-24 09:52S 25°45' E 153°56'85 6.7
2017-Sep-23 21:08S 27°09' E 153°52'9 9.0
2017-Sep-23 20:07S 27°19' E 153°51'1 9.2
2017-Sep-23 19:58S 27°20' E 153°51'352 8.4
2017-Sep-22 02:00S 32°55' E 151°47'2 3.4
2017-Sep-22 01:30S 32°54' E 151°46'0 0.1
2017-Sep-21 23:34S 32°53' E 151°46'0 0.0
2017-Sep-21 23:27S 32°53' E 151°46'0 0.0
2017-Sep-21 22:57S 32°53' E 151°46'0 0.0
2017-Sep-21 22:28S 32°53' E 151°46'0 0.0
2017-Sep-21 21:51S 32°53' E 151°46'0 0.0
2017-Sep-21 21:27S 32°53' E 151°46'0 0.0
2017-Sep-21 20:58S 32°53' E 151°46'0 0.0
2017-Sep-21 20:31S 32°53' E 151°46'0 0.0
2017-Sep-21 19:52S 32°53' E 151°46'0 0.0
2017-Sep-21 19:27S 32°53' E 151°46'0 0.0
2017-Sep-21 18:57S 32°53' E 151°46'0 0.0
2017-Sep-21 18:31S 32°53' E 151°46'0 0.0
2017-Sep-21 18:01S 32°53' E 151°46'0 0.0
2017-Sep-21 17:30S 32°53' E 151°46'0 0.0
2017-Sep-21 16:57S 32°53' E 151°46'0 0.0
2017-Sep-21 16:28S 32°53' E 151°46'0 0.0
2017-Sep-21 15:58S 32°53' E 151°46'0 0.0
2017-Sep-21 15:28S 32°53' E 151°46'0 0.0
2017-Sep-21 14:58S 32°53' E 151°46'0 0.0
2017-Sep-21 14:16S 32°53' E 151°46'0 0.0
2017-Sep-21 14:00S 32°53' E 151°46'0 0.0
2017-Sep-21 13:10S 32°53' E 151°46'0 0.0
2017-Sep-21 12:57S 32°53' E 151°46'0 0.0
2017-Sep-21 12:28S 32°53' E 151°46'0 0.0
2017-Sep-21 11:57S 32°53' E 151°46'0 0.0
2017-Sep-21 11:28S 32°53' E 151°46'0 0.0
2017-Sep-21 11:00S 32°53' E 151°46'0 0.0
2017-Sep-21 10:28S 32°53' E 151°46'0 0.0
2017-Sep-21 09:58S 32°53' E 151°46'0 0.0
2017-Sep-21 09:28S 32°53' E 151°46'0 0.0
2017-Sep-21 08:58S 32°53' E 151°46'0 0.0
2017-Sep-21 08:09S 32°53' E 151°46'0 0.0
2017-Sep-21 07:58S 32°53' E 151°46'0 0.0
2017-Sep-21 05:58S 32°53' E 151°46'0 0.0
2017-Sep-21 05:28S 32°53' E 151°46'0 0.0
2017-Sep-21 05:00S 32°53' E 151°46'0 0.0
2017-Sep-21 04:27S 32°53' E 151°46'0 0.0
2017-Sep-21 04:01S 32°53' E 151°46'0 0.0
2017-Sep-21 03:31S 32°53' E 151°46'0 0.0
2017-Sep-21 02:58S 32°53' E 151°46'0 0.0
2017-Sep-21 02:30S 32°53' E 151°46'0 0.0
2017-Sep-21 01:58S 32°53' E 151°46'0 0.0
2017-Sep-20 23:40S 32°53' E 151°46'0 0.0
2017-Sep-20 21:28S 32°53' E 151°46'0 0.0
2017-Sep-20 20:47S 32°53' E 151°46'0 0.4
2017-Sep-20 20:30S 32°53' E 151°46'2 3.8
2017-Sep-20 20:00S 32°55' E 151°47'3 6.9
2017-Sep-20 19:30S 32°56' E 151°51'3 6.8
2017-Sep-20 19:00S 32°59' E 151°52'3 5.3
2017-Sep-20 18:30S 33°02' E 151°51'4 7.1
2017-Sep-20 17:59S 33°05' E 151°48'3 6.4
2017-Sep-20 17:30S 33°07' E 151°45'1 0.5
2017-Sep-20 15:11S 33°07' E 151°44'0 0.0
2017-Sep-20 11:29S 33°07' E 151°44'0 0.0
2017-Sep-19 04:44S 33°07' E 151°44'0 0.2
2017-Sep-19 04:23S 33°07' E 151°44'0 0.1
2017-Sep-19 03:56S 33°07' E 151°44'0 0.1
2017-Sep-19 03:29S 33°07' E 151°44'0 0.1
2017-Sep-19 02:59S 33°07' E 151°44'0 0.0
2017-Sep-19 02:29S 33°07' E 151°44'0 0.2
2017-Sep-19 01:56S 33°07' E 151°44'0 0.1
2017-Sep-19 01:29S 33°07' E 151°44'0 0.0
2017-Sep-19 00:59S 33°07' E 151°44'0 0.1
2017-Sep-19 00:26S 33°07' E 151°44'0 0.1
2017-Sep-18 23:23S 33°07' E 151°44'0 0.1
2017-Sep-18 22:53S 33°07' E 151°44'0 0.0
2017-Sep-18 22:29S 33°07' E 151°44'0 0.0
2017-Sep-18 21:59S 33°07' E 151°44'0 0.1
2017-Sep-18 21:29S 33°07' E 151°44'0 0.0
2017-Sep-18 20:59S 33°07' E 151°44'0 0.0
2017-Sep-18 20:29S 33°07' E 151°44'0 0.1
2017-Sep-18 19:59S 33°07' E 151°44'0 0.0
2017-Sep-18 19:29S 33°07' E 151°44'0 0.0
2017-Sep-18 18:59S 33°07' E 151°44'0 0.0
2017-Sep-18 18:29S 33°07' E 151°44'0 0.0
2017-Sep-18 17:59S 33°07' E 151°44'0 0.0
2017-Sep-18 17:29S 33°07' E 151°44'0 0.0
2017-Sep-18 16:59S 33°07' E 151°44'0 0.0
2017-Sep-18 16:29S 33°07' E 151°44'0 0.1
2017-Sep-18 15:59S 33°07' E 151°44'0 0.0
2017-Sep-18 15:29S 33°07' E 151°44'0 0.0
2017-Sep-18 14:59S 33°07' E 151°44'0 0.0
2017-Sep-18 14:29S 33°07' E 151°44'0 0.0
2017-Sep-18 13:59S 33°07' E 151°44'0 0.0
2017-Sep-18 13:29S 33°07' E 151°44'0 0.0
2017-Sep-18 12:59S 33°07' E 151°44'0 0.0
2017-Sep-18 12:29S 33°07' E 151°44'0 0.0
2017-Sep-18 11:59S 33°07' E 151°44'0 0.0
2017-Sep-18 11:29S 33°07' E 151°44'0 0.0
2017-Sep-18 10:59S 33°07' E 151°44'0 0.0
2017-Sep-18 10:29S 33°07' E 151°44'0 0.0
2017-Sep-18 09:59S 33°07' E 151°44'0 0.1
2017-Sep-18 09:29S 33°07' E 151°44'0 0.0
2017-Sep-18 08:59S 33°07' E 151°44'0 0.1
2017-Sep-18 08:29S 33°07' E 151°44'0 0.1
2017-Sep-18 07:59S 33°07' E 151°44'0 0.0
2017-Sep-18 07:29S 33°07' E 151°44'0 0.0
2017-Sep-18 06:59S 33°07' E 151°44'0 0.0
2017-Sep-18 06:29S 33°07' E 151°44'0 0.0
2017-Sep-18 05:59S 33°07' E 151°44'0 0.0
2017-Sep-18 05:29S 33°07' E 151°44'0 0.1
2017-Sep-18 04:59S 33°07' E 151°44'0 0.0
2017-Sep-18 04:29S 33°07' E 151°44'0 0.1
2017-Sep-18 03:59S 33°07' E 151°44'0 0.1
2017-Sep-18 03:29S 33°07' E 151°44'0 0.0
2017-Sep-18 02:56S 33°07' E 151°44'0 0.1
2017-Sep-18 02:29S 33°07' E 151°44'0 0.0
2017-Sep-18 01:56S 33°07' E 151°44'0 0.0
2017-Sep-18 00:32S 33°07' E 151°44'0 0.0
2017-Sep-17 23:53S 33°07' E 151°44'1 0.6
2017-Sep-17 22:54S 33°07' E 151°45'2 3.7
2017-Sep-17 22:30S 33°07' E 151°46'4 7.2
2017-Sep-17 22:00S 33°06' E 151°50'510.5
2017-Sep-17 21:30S 33°04' E 151°56'510.4
2017-Sep-17 21:00S 33°02' E 152°02'4 8.0
2017-Sep-17 20:30S 33°02' E 152°07'0 0.9
2017-Sep-17 20:00S 33°01' E 152°06'1 1.1
2017-Sep-17 19:30S 33°01' E 152°07'1 1.2
2017-Sep-17 19:00S 33°00' E 152°07'1 1.2
2017-Sep-17 18:30S 33°00' E 152°08'1 1.1
2017-Sep-17 18:00S 32°60' E 152°08'0 0.9
2017-Sep-17 17:30S 32°59' E 152°09'0 0.9
2017-Sep-17 17:00S 32°59' E 152°09'0 0.7
2017-Sep-17 16:30S 32°59' E 152°10'0 0.7
2017-Sep-17 16:00S 32°59' E 152°10'0 0.3
2017-Sep-17 15:27S 32°58' E 152°10'0 0.3
2017-Sep-17 15:00S 32°58' E 152°10'0 0.1
2017-Sep-17 14:30S 32°58' E 152°10'0 0.1
2017-Sep-17 14:00S 32°58' E 152°10'0 0.2
2017-Sep-17 13:30S 32°59' E 152°10'0 0.3
2017-Sep-17 13:00S 32°59' E 152°10'0 0.4
2017-Sep-17 12:30S 32°59' E 152°10'0 0.5
2017-Sep-17 12:00S 32°59' E 152°10'0 0.5
2017-Sep-17 11:30S 32°59' E 152°09'0 0.5
2017-Sep-17 11:00S 32°59' E 152°09'0 0.5
2017-Sep-17 10:30S 32°60' E 152°09'0 0.5
2017-Sep-17 10:00S 32°60' E 152°09'0 0.7
2017-Sep-17 09:30S 33°00' E 152°09'0 0.8
2017-Sep-17 09:00S 33°01' E 152°09'0 0.8
2017-Sep-17 08:30S 33°01' E 152°09'0 0.8
2017-Sep-17 08:00S 33°01' E 152°09'0 0.9
2017-Sep-17 07:30S 33°02' E 152°08'0 0.9
2017-Sep-17 07:00S 33°02' E 152°08'1 1.5
2017-Sep-17 06:30S 33°03' E 152°08'1 1.6
2017-Sep-17 06:00S 33°04' E 152°08'1 1.6
2017-Sep-17 05:30S 33°05' E 152°08'1 1.4
2017-Sep-17 05:00S 33°05' E 152°08'1 2.1
2017-Sep-17 04:30S 33°04' E 152°08'5 9.1
2017-Sep-17 04:00S 33°00' E 152°10'510.1
2017-Sep-17 03:30S 32°56' E 152°13'510.5
2017-Sep-17 03:00S 32°51' E 152°17'611.2
2017-Sep-17 02:30S 32°47' E 152°20'510.9
2017-Sep-17 02:00S 32°42' E 152°24'611.0
2017-Sep-17 01:30S 32°38' E 152°28'510.9
2017-Sep-17 01:00S 32°34' E 152°32'511.0
2017-Sep-17 00:30S 32°30' E 152°37'28211.5
2017-Sep-15 23:58S 27°55' E 153°50'612.2
2017-Sep-15 23:30S 27°49' E 153°51'812.4
2017-Sep-15 22:53S 27°42' E 153°51'512.4
2017-Sep-15 22:30S 27°37' E 153°51'612.2
2017-Sep-15 22:00S 27°31' E 153°51'612.1
2017-Sep-15 21:30S 27°25' E 153°51'611.9
2017-Sep-15 20:59S 27°19' E 153°52'1611.7
2017-Sep-15 19:39S 27°03' E 153°52'211.9
2017-Sep-15 19:30S 27°01' E 153°53'  
Track history (hours):
 
Tides and Currents Weather Stations Pressure Air Temp Water Temp Dewpoint Dewpoint Depression Visibility Wind Speed Wind Dir Waves Ship Positions

Coral Topaz

Last reported at 2017-Sep-25 10:50 UTC. Time now 2017-Oct-20 04:51 UTC.
Position S 21°43' E 154°05'.
Warning: this ship's position is 24 days out of date.

Length 225 m; draft 12.9 m.

Type: Ship. MMSI: 372904000.

Date/timePositionNaut miles runAvg speedWind from/ knotsBaromVisibWave heightAir tempDewpointWater temp
2017-Sep-25 10:50S 21°43' E 154°05'310.1
2017-Sep-25 10:30S 21°46' E 154°05'222 9.9
2017-Sep-24 11:59S 25°28' E 153°57'11 7.8
2017-Sep-24 10:37S 25°39' E 153°56'2 7.6
2017-Sep-24 10:18S 25°41' E 153°56'3 7.5
2017-Sep-24 09:52S 25°45' E 153°56'85 6.7
2017-Sep-23 21:08S 27°09' E 153°52'9 9.0
2017-Sep-23 20:07S 27°19' E 153°51'1 9.2
2017-Sep-23 19:58S 27°20' E 153°51'352 8.4
2017-Sep-22 02:00S 32°55' E 151°47'2 3.4
2017-Sep-22 01:30S 32°54' E 151°46'0 0.1
2017-Sep-21 23:34S 32°53' E 151°46'0 0.0
2017-Sep-21 23:27S 32°53' E 151°46'0 0.0
2017-Sep-21 22:57S 32°53' E 151°46'0 0.0
2017-Sep-21 22:28S 32°53' E 151°46'0 0.0
2017-Sep-21 21:51S 32°53' E 151°46'0 0.0
2017-Sep-21 21:27S 32°53' E 151°46'0 0.0
2017-Sep-21 20:58S 32°53' E 151°46'0 0.0
2017-Sep-21 20:31S 32°53' E 151°46'0 0.0
2017-Sep-21 19:52S 32°53' E 151°46'0 0.0
2017-Sep-21 19:27S 32°53' E 151°46'0 0.0
2017-Sep-21 18:57S 32°53' E 151°46'0 0.0
2017-Sep-21 18:31S 32°53' E 151°46'0 0.0
2017-Sep-21 18:01S 32°53' E 151°46'0 0.0
2017-Sep-21 17:30S 32°53' E 151°46'0 0.0
2017-Sep-21 16:57S 32°53' E 151°46'0 0.0
2017-Sep-21 16:28S 32°53' E 151°46'0 0.0
2017-Sep-21 15:58S 32°53' E 151°46'0 0.0
2017-Sep-21 15:28S 32°53' E 151°46'0 0.0
2017-Sep-21 14:58S 32°53' E 151°46'0 0.0
2017-Sep-21 14:16S 32°53' E 151°46'0 0.0
2017-Sep-21 14:00S 32°53' E 151°46'0 0.0
2017-Sep-21 13:10S 32°53' E 151°46'0 0.0
2017-Sep-21 12:57S 32°53' E 151°46'0 0.0
2017-Sep-21 12:28S 32°53' E 151°46'0 0.0
2017-Sep-21 11:57S 32°53' E 151°46'0 0.0
2017-Sep-21 11:28S 32°53' E 151°46'0 0.0
2017-Sep-21 11:00S 32°53' E 151°46'0 0.0
2017-Sep-21 10:28S 32°53' E 151°46'0 0.0
2017-Sep-21 09:58S 32°53' E 151°46'0 0.0
2017-Sep-21 09:28S 32°53' E 151°46'0 0.0
2017-Sep-21 08:58S 32°53' E 151°46'0 0.0
2017-Sep-21 08:09S 32°53' E 151°46'0 0.0
2017-Sep-21 07:58S 32°53' E 151°46'0 0.0
2017-Sep-21 05:58S 32°53' E 151°46'0 0.0
2017-Sep-21 05:28S 32°53' E 151°46'0 0.0
2017-Sep-21 05:00S 32°53' E 151°46'0 0.0
2017-Sep-21 04:27S 32°53' E 151°46'0 0.0
2017-Sep-21 04:01S 32°53' E 151°46'0 0.0
2017-Sep-21 03:31S 32°53' E 151°46'0 0.0
2017-Sep-21 02:58S 32°53' E 151°46'0 0.0
2017-Sep-21 02:30S 32°53' E 151°46'0 0.0
2017-Sep-21 01:58S 32°53' E 151°46'0 0.0
2017-Sep-20 23:40S 32°53' E 151°46'0 0.0
2017-Sep-20 21:28S 32°53' E 151°46'0 0.0
2017-Sep-20 20:47S 32°53' E 151°46'0 0.4
2017-Sep-20 20:30S 32°53' E 151°46'2 3.8
2017-Sep-20 20:00S 32°55' E 151°47'3 6.9
2017-Sep-20 19:30S 32°56' E 151°51'3 6.8
2017-Sep-20 19:00S 32°59' E 151°52'3 5.3
2017-Sep-20 18:30S 33°02' E 151°51'4 7.1
2017-Sep-20 17:59S 33°05' E 151°48'3 6.4
2017-Sep-20 17:30S 33°07' E 151°45'1 0.5
2017-Sep-20 15:11S 33°07' E 151°44'0 0.0
2017-Sep-20 11:29S 33°07' E 151°44'0 0.0
2017-Sep-19 04:44S 33°07' E 151°44'0 0.2
2017-Sep-19 04:23S 33°07' E 151°44'0 0.1
2017-Sep-19 03:56S 33°07' E 151°44'0 0.1
2017-Sep-19 03:29S 33°07' E 151°44'0 0.1
2017-Sep-19 02:59S 33°07' E 151°44'0 0.0
2017-Sep-19 02:29S 33°07' E 151°44'0 0.2
2017-Sep-19 01:56S 33°07' E 151°44'0 0.1
2017-Sep-19 01:29S 33°07' E 151°44'0 0.0
2017-Sep-19 00:59S 33°07' E 151°44'0 0.1
2017-Sep-19 00:26S 33°07' E 151°44'0 0.1
2017-Sep-18 23:23S 33°07' E 151°44'0 0.1
2017-Sep-18 22:53S 33°07' E 151°44'0 0.0
2017-Sep-18 22:29S 33°07' E 151°44'0 0.0
2017-Sep-18 21:59S 33°07' E 151°44'0 0.1
2017-Sep-18 21:29S 33°07' E 151°44'0 0.0
2017-Sep-18 20:59S 33°07' E 151°44'0 0.0
2017-Sep-18 20:29S 33°07' E 151°44'0 0.1
2017-Sep-18 19:59S 33°07' E 151°44'0 0.0
2017-Sep-18 19:29S 33°07' E 151°44'0 0.0
2017-Sep-18 18:59S 33°07' E 151°44'0 0.0
2017-Sep-18 18:29S 33°07' E 151°44'0 0.0
2017-Sep-18 17:59S 33°07' E 151°44'0 0.0
2017-Sep-18 17:29S 33°07' E 151°44'0 0.0
2017-Sep-18 16:59S 33°07' E 151°44'0 0.0
2017-Sep-18 16:29S 33°07' E 151°44'0 0.1
2017-Sep-18 15:59S 33°07' E 151°44'0 0.0
2017-Sep-18 15:29S 33°07' E 151°44'0 0.0
2017-Sep-18 14:59S 33°07' E 151°44'0 0.0
2017-Sep-18 14:29S 33°07' E 151°44'0 0.0
2017-Sep-18 13:59S 33°07' E 151°44'0 0.0
2017-Sep-18 13:29S 33°07' E 151°44'0 0.0
2017-Sep-18 12:59S 33°07' E 151°44'0 0.0
2017-Sep-18 12:29S 33°07' E 151°44'0 0.0
2017-Sep-18 11:59S 33°07' E 151°44'0 0.0
2017-Sep-18 11:29S 33°07' E 151°44'0 0.0
2017-Sep-18 10:59S 33°07' E 151°44'0 0.0
2017-Sep-18 10:29S 33°07' E 151°44'0 0.0
2017-Sep-18 09:59S 33°07' E 151°44'0 0.1
2017-Sep-18 09:29S 33°07' E 151°44'0 0.0
2017-Sep-18 08:59S 33°07' E 151°44'0 0.1
2017-Sep-18 08:29S 33°07' E 151°44'0 0.1
2017-Sep-18 07:59S 33°07' E 151°44'0 0.0
2017-Sep-18 07:29S 33°07' E 151°44'0 0.0
2017-Sep-18 06:59S 33°07' E 151°44'0 0.0
2017-Sep-18 06:29S 33°07' E 151°44'0 0.0
2017-Sep-18 05:59S 33°07' E 151°44'0 0.0
2017-Sep-18 05:29S 33°07' E 151°44'0 0.1
2017-Sep-18 04:59S 33°07' E 151°44'0 0.0
2017-Sep-18 04:29S 33°07' E 151°44'0 0.1
2017-Sep-18 03:59S 33°07' E 151°44'0 0.1
2017-Sep-18 03:29S 33°07' E 151°44'0 0.0
2017-Sep-18 02:56S 33°07' E 151°44'0 0.1
2017-Sep-18 02:29S 33°07' E 151°44'0 0.0
2017-Sep-18 01:56S 33°07' E 151°44'0 0.0
2017-Sep-18 00:32S 33°07' E 151°44'0 0.0
2017-Sep-17 23:53S 33°07' E 151°44'1 0.6
2017-Sep-17 22:54S 33°07' E 151°45'2 3.7
2017-Sep-17 22:30S 33°07' E 151°46'4 7.2
2017-Sep-17 22:00S 33°06' E 151°50'510.5
2017-Sep-17 21:30S 33°04' E 151°56'510.4
2017-Sep-17 21:00S 33°02' E 152°02'4 8.0
2017-Sep-17 20:30S 33°02' E 152°07'0 0.9
2017-Sep-17 20:00S 33°01' E 152°06'1 1.1
2017-Sep-17 19:30S 33°01' E 152°07'1 1.2
2017-Sep-17 19:00S 33°00' E 152°07'1 1.2
2017-Sep-17 18:30S 33°00' E 152°08'1 1.1
2017-Sep-17 18:00S 32°60' E 152°08'0 0.9
2017-Sep-17 17:30S 32°59' E 152°09'0 0.9
2017-Sep-17 17:00S 32°59' E 152°09'0 0.7
2017-Sep-17 16:30S 32°59' E 152°10'0 0.7
2017-Sep-17 16:00S 32°59' E 152°10'0 0.3
2017-Sep-17 15:27S 32°58' E 152°10'0 0.3
2017-Sep-17 15:00S 32°58' E 152°10'0 0.1
2017-Sep-17 14:30S 32°58' E 152°10'0 0.1
2017-Sep-17 14:00S 32°58' E 152°10'0 0.2
2017-Sep-17 13:30S 32°59' E 152°10'0 0.3
2017-Sep-17 13:00S 32°59' E 152°10'0 0.4
2017-Sep-17 12:30S 32°59' E 152°10'0 0.5
2017-Sep-17 12:00S 32°59' E 152°10'0 0.5
2017-Sep-17 11:30S 32°59' E 152°09'0 0.5
2017-Sep-17 11:00S 32°59' E 152°09'0 0.5
2017-Sep-17 10:30S 32°60' E 152°09'0 0.5
2017-Sep-17 10:00S 32°60' E 152°09'0 0.7
2017-Sep-17 09:30S 33°00' E 152°09'0 0.8
2017-Sep-17 09:00S 33°01' E 152°09'0 0.8
2017-Sep-17 08:30S 33°01' E 152°09'0 0.8
2017-Sep-17 08:00S 33°01' E 152°09'0 0.9
2017-Sep-17 07:30S 33°02' E 152°08'0 0.9
2017-Sep-17 07:00S 33°02' E 152°08'1 1.5
2017-Sep-17 06:30S 33°03' E 152°08'1 1.6
2017-Sep-17 06:00S 33°04' E 152°08'1 1.6
2017-Sep-17 05:30S 33°05' E 152°08'1 1.4
2017-Sep-17 05:00S 33°05' E 152°08'1 2.1
2017-Sep-17 04:30S 33°04' E 152°08'5 9.1
2017-Sep-17 04:00S 33°00' E 152°10'510.1
2017-Sep-17 03:30S 32°56' E 152°13'510.5
2017-Sep-17 03:00S 32°51' E 152°17'611.2
2017-Sep-17 02:30S 32°47' E 152°20'510.9
2017-Sep-17 02:00S 32°42' E 152°24'611.0
2017-Sep-17 01:30S 32°38' E 152°28'510.9
2017-Sep-17 01:00S 32°34' E 152°32'511.0
2017-Sep-17 00:30S 32°30' E 152°37'28211.5
2017-Sep-15 23:58S 27°55' E 153°50'612.2
2017-Sep-15 23:30S 27°49' E 153°51'812.4
2017-Sep-15 22:53S 27°42' E 153°51'512.4
2017-Sep-15 22:30S 27°37' E 153°51'612.2
2017-Sep-15 22:00S 27°31' E 153°51'612.1
2017-Sep-15 21:30S 27°25' E 153°51'611.9
2017-Sep-15 20:59S 27°19' E 153°52'1611.7
2017-Sep-15 19:39S 27°03' E 153°52'211.9
2017-Sep-15 19:30S 27°01' E 153°53'  

Dump ship's entire track history